createdAt,value
2018-10-17T00:00:14.176Z,101013.28
2018-10-17T00:02:39.595Z,101022.05
2018-10-17T00:05:05.082Z,101019.55
2018-10-17T00:07:30.494Z,101018.91
2018-10-17T00:09:55.957Z,101021.11
2018-10-17T00:12:21.428Z,101018.80
2018-10-17T00:15:05.865Z,101020.96
2018-10-17T00:17:31.291Z,101016.70
2018-10-17T00:19:56.711Z,101014.69
2018-10-17T00:22:22.161Z,101017.32
2018-10-17T00:24:47.595Z,101018.61
2018-10-17T00:27:13.036Z,101015.64
2018-10-17T00:29:49.979Z,101015.81
2018-10-17T00:34:46.633Z,101016.59
2018-10-17T00:37:12.134Z,101009.41
2018-10-17T00:39:37.609Z,101015.81
2018-10-17T00:42:03.075Z,101014.12
2018-10-17T00:44:28.493Z,101012.50
2018-10-17T00:46:53.963Z,101020.39
2018-10-17T00:49:19.396Z,101016.12
2018-10-17T00:51:44.832Z,101021.58
2018-10-17T00:54:10.280Z,101018.77
2018-10-17T00:56:35.700Z,101015.04
2018-10-17T01:01:59.852Z,101024.50
2018-10-17T01:04:25.277Z,101017.02
2018-10-17T01:09:27.416Z,101016.53
2018-10-17T01:11:53.117Z,101019.52
2018-10-17T01:14:18.535Z,101016.87
2018-10-17T01:19:21.487Z,101009.39
2018-10-17T01:21:46.932Z,101009.36
2018-10-17T01:24:14.814Z,101006.08
2018-10-17T01:26:40.226Z,101007.03
2018-10-17T01:34:23.065Z,101006.31
2018-10-17T01:36:48.480Z,100999.23
2018-10-17T01:44:27.572Z,100994.66
2018-10-17T01:46:53.312Z,101003.37
2018-10-17T01:49:21.506Z,101005.52
2018-10-17T01:51:46.942Z,100991.70
2018-10-17T01:56:49.237Z,100989.77
2018-10-17T02:01:51.616Z,100984.73
2018-10-17T02:04:29.006Z,100985.47
2018-10-17T02:06:49.217Z,100986.37
2018-10-17T02:09:14.633Z,100985.27
2018-10-17T02:11:40.318Z,100985.28
2018-10-17T02:14:05.949Z,100980.17
2018-10-17T02:16:31.419Z,100981.19
2018-10-17T02:19:11.756Z,100977.01
2018-10-17T02:24:06.581Z,100981.66
2018-10-17T02:26:32.030Z,100981.51
2018-10-17T02:31:34.410Z,100980.82
2018-10-17T02:33:59.918Z,100980.45
2018-10-17T02:36:25.353Z,100976.66
2018-10-17T02:38:50.776Z,100978.80
2018-10-17T02:41:16.274Z,100981.30
2018-10-17T02:43:41.644Z,100986.19
2018-10-17T02:46:07.604Z,100982.96
2018-10-17T02:48:33.031Z,100985.99
2018-10-17T02:50:58.468Z,100987.22
2018-10-17T02:53:23.933Z,100986.81
2018-10-17T02:55:49.382Z,100985.26
2018-10-17T02:58:14.897Z,100979.02
2018-10-17T03:00:40.326Z,100986.97
2018-10-17T03:03:36.250Z,100983.72
2018-10-17T03:05:56.836Z,100981.81
2018-10-17T03:08:22.279Z,100989.02
2018-10-17T03:10:50.510Z,100988.11
2018-10-17T03:13:16.024Z,100987.45
2018-10-17T03:15:41.471Z,100984.73
2018-10-17T03:20:56.861Z,100979.94
2018-10-17T03:23:14.472Z,100981.61
2018-10-17T03:25:39.901Z,100977.27
2018-10-17T03:28:05.645Z,100977.11
2018-10-17T03:30:30.997Z,100981.81
2018-10-17T03:32:56.479Z,100988.48
2018-10-17T03:35:21.899Z,100988.30
2018-10-17T03:37:47.310Z,100995.41
2018-10-17T03:40:12.787Z,101001.57
2018-10-17T03:42:38.348Z,100999.14
2018-10-17T03:47:39.896Z,101006.86
2018-10-17T03:52:50.306Z,100999.48
2018-10-17T03:55:08.756Z,101007.67
2018-10-17T03:57:34.099Z,101011.00
2018-10-17T03:59:59.530Z,101015.56
2018-10-17T04:02:44.009Z,101019.52
2018-10-17T04:05:09.719Z,101020.48
2018-10-17T04:07:35.225Z,101013.72
2018-10-17T04:10:00.670Z,101012.70
2018-10-17T04:15:02.337Z,101012.19
2018-10-17T04:17:46.816Z,101009.20
2018-10-17T04:20:12.246Z,101009.22
2018-10-17T04:25:19.583Z,101014.77
2018-10-17T04:27:42.841Z,101012.75
2018-10-17T04:30:27.886Z,101013.47
2018-10-17T04:32:53.317Z,101005.66
2018-10-17T04:35:18.797Z,101008.13
2018-10-17T04:40:24.326Z,101012.07
2018-10-17T04:42:49.922Z,101012.52
2018-10-17T04:45:27.190Z,101022.56
2018-10-17T04:47:46.554Z,101016.09
2018-10-17T04:50:12.550Z,101014.91
2018-10-17T04:52:38.090Z,101020.20
2018-10-17T04:55:03.563Z,101016.16
2018-10-17T04:57:29.000Z,101018.38
2018-10-17T04:59:54.537Z,101018.34
2018-10-17T05:02:20.027Z,101016.83
2018-10-17T05:04:57.156Z,101018.13
2018-10-17T05:07:16.507Z,101021.30
2018-10-17T05:09:42.015Z,101021.84
2018-10-17T05:12:07.527Z,101023.34
2018-10-17T05:17:10.457Z,101024.63
2018-10-17T05:19:35.847Z,101022.42
2018-10-17T05:22:01.326Z,101018.13
2018-10-17T05:24:26.779Z,101018.70
2018-10-17T05:26:52.217Z,101015.26
2018-10-17T05:29:17.680Z,101016.16
2018-10-17T05:31:43.110Z,101020.84
2018-10-17T05:34:08.573Z,101016.59
2018-10-17T05:36:34.031Z,101014.19
2018-10-17T05:38:59.509Z,101009.75
2018-10-17T05:41:24.951Z,101012.76
2018-10-17T05:43:50.412Z,101014.48
2018-10-17T05:46:15.880Z,101016.84
2018-10-17T05:48:41.304Z,101012.79
2018-10-17T05:51:06.842Z,101013.86
2018-10-17T05:53:32.285Z,101022.17
2018-10-17T05:55:57.722Z,101026.23
2018-10-17T06:03:56.482Z,101019.23
2018-10-17T06:06:21.937Z,101021.13
2018-10-17T06:08:58.818Z,101021.89
2018-10-17T06:11:32.014Z,101017.97
2018-10-17T06:13:50.211Z,101023.98
2018-10-17T06:18:51.878Z,101028.11
2018-10-17T06:21:17.254Z,101028.30
2018-10-17T06:23:42.738Z,101032.53
2018-10-17T06:26:08.176Z,101033.05
2018-10-17T06:28:33.596Z,101032.37
2018-10-17T06:31:13.699Z,101037.61
2018-10-17T06:33:30.104Z,101027.30
2018-10-17T06:35:55.577Z,101035.06
2018-10-17T06:38:20.999Z,101033.36
2018-10-17T06:40:46.418Z,101039.20
2018-10-17T06:45:48.743Z,101043.74
2018-10-17T06:48:14.238Z,101048.88
2018-10-17T06:50:39.675Z,101044.00
2018-10-17T06:53:05.263Z,101048.70
2018-10-17T06:55:30.616Z,101040.23
2018-10-17T06:57:56.043Z,101049.09
2018-10-17T07:00:35.076Z,101045.06
2018-10-17T07:02:52.785Z,101040.20
2018-10-17T07:05:18.426Z,101049.94
2018-10-17T07:10:20.340Z,101033.72
2018-10-17T07:12:45.847Z,101041.41
2018-10-17T07:15:11.324Z,101035.03
2018-10-17T07:17:48.854Z,101039.09
2018-10-17T07:20:09.217Z,101036.80
2018-10-17T07:25:11.306Z,101040.27
2018-10-17T07:27:55.667Z,101046.22
2018-10-17T07:30:21.137Z,101033.50
2018-10-17T07:32:46.623Z,101044.06
2018-10-17T07:37:48.232Z,101040.69
2018-10-17T07:40:25.212Z,101045.79
2018-10-17T07:42:44.725Z,100970.30
2018-10-17T07:45:10.168Z,101054.37
2018-10-17T07:47:35.649Z,101047.08
2018-10-17T07:50:01.070Z,101045.83
2018-10-17T07:52:26.494Z,101047.47
2018-10-17T07:54:51.969Z,101047.17
2018-10-17T07:57:17.428Z,101048.69
2018-10-17T07:59:42.955Z,101043.41
2018-10-17T08:02:08.701Z,101050.05
2018-10-17T15:26:07.100Z,100942.31
2018-10-17T15:31:14.817Z,100942.92
2018-10-17T15:33:40.230Z,100944.38
2018-10-17T15:36:05.857Z,100944.11
2018-10-17T15:38:31.130Z,100944.21
2018-10-17T15:40:56.556Z,100945.46
2018-10-17T15:43:22.052Z,100949.83
2018-10-17T15:45:47.442Z,100954.77
2018-10-17T15:48:12.993Z,100945.00
2018-10-17T15:50:38.391Z,100952.63
2018-10-17T15:53:03.930Z,100949.81
2018-10-17T15:55:29.308Z,100952.91
2018-10-17T16:00:43.168Z,100953.20
2018-10-17T16:03:08.648Z,100946.90
2018-10-17T16:10:54.904Z,100957.33
2018-10-17T16:13:32.108Z,100956.81
2018-10-17T16:15:51.248Z,100956.95
2018-10-17T16:18:28.296Z,100960.72
2018-10-17T16:20:47.694Z,100961.70
2018-10-17T16:25:49.822Z,100961.97
2018-10-17T16:28:15.297Z,100952.24
2018-10-17T16:30:40.895Z,100960.98
2018-10-17T16:33:06.220Z,100949.41
2018-10-17T16:35:31.643Z,100949.04
2018-10-17T16:37:57.122Z,100949.04
2018-10-17T16:40:22.598Z,100949.38
2018-10-17T16:42:48.031Z,100956.44
2018-10-17T16:45:13.475Z,100958.08
2018-10-17T16:47:39.038Z,100951.92
2018-10-17T16:50:04.474Z,100956.58
2018-10-17T16:52:29.812Z,100961.19
2018-10-17T16:55:06.954Z,100965.34
2018-10-17T16:57:46.795Z,100965.34
2018-10-17T17:00:03.498Z,100966.50
2018-10-17T17:02:28.949Z,100962.23
2018-10-17T17:05:09.090Z,100965.45
2018-10-17T17:07:36.922Z,100968.56
2018-10-17T17:09:57.208Z,100972.63
2018-10-17T17:12:22.660Z,100971.85
2018-10-17T17:14:48.112Z,100936.95
2018-10-17T17:17:13.662Z,100977.47
2018-10-17T17:19:50.666Z,100976.08
2018-10-17T17:22:10.074Z,100988.16
2018-10-17T17:24:35.535Z,100985.70
2018-10-17T17:27:00.978Z,100985.22
2018-10-17T17:29:45.511Z,100976.91
2018-10-17T17:32:25.185Z,100984.80
2018-10-17T17:34:53.395Z,100980.66
2018-10-17T17:37:12.975Z,100979.63
2018-10-17T17:39:53.075Z,100982.66
2018-10-17T17:42:09.494Z,100947.50
2018-10-17T17:44:34.910Z,100986.45
2018-10-17T17:47:00.322Z,100989.31
2018-10-17T17:49:25.802Z,100990.42
2018-10-17T17:52:02.843Z,100992.52
2018-10-17T17:57:10.461Z,100987.34
2018-10-17T17:59:35.902Z,100983.61
2018-10-17T18:04:37.692Z,100984.65
2018-10-17T18:09:47.225Z,100982.76
2018-10-17T18:14:44.829Z,100998.00
2018-10-17T18:17:10.312Z,100997.40
2018-10-17T18:19:35.761Z,101005.69
2018-10-17T18:22:15.336Z,101003.17
2018-10-17T18:24:32.411Z,101014.02
2018-10-17T18:27:16.880Z,101013.03
2018-10-17T18:29:42.359Z,101011.83
2018-10-17T18:32:07.856Z,101016.17
2018-10-17T18:34:33.312Z,101015.34
2018-10-17T18:37:32.346Z,101021.42
2018-10-17T18:39:48.992Z,101015.57
2018-10-17T18:42:14.422Z,101016.63
2018-10-17T18:44:39.890Z,101016.47
2018-10-17T18:47:05.398Z,101018.86
2018-10-17T18:49:30.840Z,101020.97
2018-10-17T18:51:56.272Z,101020.87
2018-10-17T18:54:21.774Z,101018.83
2018-10-17T18:56:47.238Z,101022.34
2018-10-17T18:59:12.656Z,101023.12
2018-10-17T19:01:38.142Z,101029.87
2018-10-17T19:04:14.982Z,101026.45
2018-10-17T19:06:45.926Z,101032.26
2018-10-17T19:09:28.222Z,101027.02
2018-10-17T19:11:53.700Z,101026.73
2018-10-17T19:14:19.153Z,101037.56
2018-10-17T19:16:44.681Z,101027.59
2018-10-17T19:21:46.120Z,101029.56
2018-10-17T19:24:11.577Z,101036.73
2018-10-17T19:26:37.019Z,101041.33
2018-10-17T19:29:02.495Z,101042.37
2018-10-17T19:31:27.942Z,101053.25
2018-10-17T19:33:53.446Z,101045.61
2018-10-17T19:36:19.035Z,101052.90
2018-10-17T19:38:44.492Z,101061.29
2018-10-17T19:41:09.959Z,101015.98
2018-10-17T19:43:35.479Z,101057.22
2018-10-17T19:46:14.802Z,101062.66
2018-10-17T19:51:12.336Z,101062.28
2018-10-17T19:53:37.757Z,101067.02
2018-10-17T19:56:03.339Z,101069.50
2018-10-17T19:58:40.456Z,101066.03
2018-10-17T20:01:05.934Z,101066.33
2018-10-17T20:03:31.440Z,101062.16
2018-10-17T20:05:56.929Z,101059.30
2018-10-17T20:08:22.380Z,101063.26
2018-10-17T20:10:47.797Z,101058.77
2018-10-17T20:13:13.213Z,101063.87
2018-10-17T20:15:38.733Z,101064.01
2018-10-17T20:18:34.676Z,101066.07
2018-10-17T20:20:54.404Z,101068.00
2018-10-17T20:23:50.358Z,101062.89
2018-10-17T20:26:10.311Z,101068.73
2018-10-17T20:28:35.733Z,101058.67
2018-10-17T20:31:12.700Z,101066.75
2018-10-17T20:33:32.825Z,101064.06
2018-10-17T20:35:58.429Z,101068.03
2018-10-17T20:38:23.862Z,101068.02
2018-10-17T20:40:49.289Z,101062.11
2018-10-17T20:43:14.757Z,101067.89
2018-10-17T20:45:40.183Z,101066.46
2018-10-17T20:48:17.319Z,101076.86
2018-10-17T20:53:12.895Z,101061.44
2018-10-17T20:58:15.238Z,101063.00
2018-10-17T21:00:40.604Z,101063.02
2018-10-17T21:03:06.098Z,101072.33
2018-10-17T21:08:07.765Z,101070.84
2018-10-17T21:10:33.105Z,101078.33
2018-10-17T21:12:58.533Z,101069.91
2018-10-17T21:15:23.988Z,101069.25
2018-10-17T21:17:49.532Z,101073.64
2018-10-17T21:20:14.979Z,101075.05
2018-10-17T21:22:40.372Z,101078.00
2018-10-17T21:25:05.793Z,101076.44
2018-10-17T21:27:42.690Z,101073.95
2018-10-17T21:30:14.025Z,101072.41
2018-10-17T21:32:34.250Z,101072.41
2018-10-17T21:34:59.752Z,101074.59
2018-10-17T21:40:02.839Z,101076.73
2018-10-17T21:45:08.177Z,101082.38
2018-10-17T21:53:00.153Z,101080.52
2018-10-17T21:55:19.572Z,101073.81
2018-10-17T21:57:45.057Z,101078.27
2018-10-17T22:02:46.931Z,101079.80
2018-10-17T22:05:31.319Z,101080.28
2018-10-17T22:08:10.992Z,101075.05
2018-10-17T22:10:39.703Z,101076.61
2018-10-17T22:15:31.109Z,101068.64
2018-10-17T22:17:56.520Z,101085.40
2018-10-17T22:20:21.970Z,101082.61
2018-10-17T22:22:47.444Z,101070.05
2018-10-17T22:25:12.967Z,101069.67
2018-10-17T22:27:54.507Z,101073.78
2018-10-17T22:30:28.957Z,101077.86
2018-10-17T22:32:54.402Z,101079.22
2018-10-17T22:35:19.878Z,101087.84
2018-10-17T22:37:45.322Z,101087.26
2018-10-17T22:40:10.793Z,101093.39
2018-10-17T22:42:36.273Z,101090.81
2018-10-17T22:45:01.706Z,101087.95
2018-10-17T22:47:27.102Z,101094.31
2018-10-17T22:49:52.554Z,101095.31
2018-10-17T22:52:38.181Z,101092.43
2018-10-17T22:57:32.742Z,101103.33
2018-10-17T22:59:58.196Z,101104.80
2018-10-17T23:05:01.182Z,101104.19
2018-10-17T23:07:26.648Z,101104.80
2018-10-17T23:09:52.137Z,101102.23
2018-10-17T23:12:17.546Z,101103.75
2018-10-17T23:14:54.496Z,101102.05
2018-10-17T23:17:14.344Z,101099.48
2018-10-17T23:19:39.773Z,101102.63
2018-10-17T23:24:36.514Z,101105.59
2018-10-17T23:27:01.949Z,101099.17
2018-10-17T23:29:27.710Z,101095.39
2018-10-17T23:31:53.410Z,101095.94
2018-10-17T23:34:18.761Z,101100.17
2018-10-17T23:36:44.215Z,101106.94
2018-10-17T23:42:02.866Z,101103.38
2018-10-17T23:44:23.225Z,101099.52
2018-10-17T23:46:48.655Z,101100.91
2018-10-17T23:49:14.151Z,101102.76
2018-10-17T23:51:39.568Z,101104.77
2018-10-17T23:54:05.060Z,101102.79
2018-10-17T23:59:08.051Z,101099.86
